Time;durP1;ratioP1;P1;durP2;ratioP2;P2;SDS_P1;SDS_P2;PMS_P1;PMS_P2;Temp;Humidity;BMP_temperature;BMP_pressure;BME280_temperature;BME280_humidity;BME280_pressure;Samples;Min_cycle;Max_cycle;Signal;HPM_P1;HPM_P2
2022/09/02 00:00:10;;;;;;;6.30;3.25;;;20.80;99.90;;;21.17;47.46;101581.94;4825809;29;20137;-76
2022/09/02 00:02:41;;;;;;;3.70;3.28;;;20.80;99.90;;;21.03;47.38;101554.63;4825513;29;20053;-76
2022/09/02 00:05:10;;;;;;;5.40;3.47;;;20.80;99.90;;;21.05;47.53;101561.72;4825432;29;20079;-76
2022/09/02 00:07:39;;;;;;;3.47;2.90;;;20.80;99.90;;;21.12;47.40;101584.78;4824740;29;20110;-76
2022/09/02 00:10:08;;;;;;;6.78;3.13;;;20.70;99.90;;;21.04;47.24;101575.25;4825613;29;20042;-76
2022/09/02 00:12:37;;;;;;;6.70;3.05;;;20.70;99.90;;;21.06;47.44;101576.06;4825254;29;20071;-76
2022/09/02 00:15:08;;;;;;;3.53;2.97;;;20.70;99.90;;;20.96;47.33;101553.97;4825244;29;20042;-76
2022/09/02 00:17:36;;;;;;;6.13;3.30;;;20.70;99.90;;;21.04;47.36;101569.88;4825205;29;20046;-76
2022/09/02 00:20:10;;;;;;;5.90;3.20;;;20.60;99.90;;;21.00;47.21;101568.19;4825264;29;20512;-76
2022/09/02 00:22:38;;;;;;;4.40;3.30;;;20.60;99.90;;;20.83;47.32;101539.19;4825427;29;20129;-76
2022/09/02 00:25:08;;;;;;;4.18;3.13;;;20.60;99.90;;;21.01;47.26;101559.19;4824927;29;20525;-76
2022/09/02 00:27:36;;;;;;;4.50;3.35;;;20.60;99.90;;;20.93;46.91;101553.19;4825630;29;20107;-76
2022/09/02 00:30:08;;;;;;;5.95;3.00;;;20.60;99.90;;;21.01;47.06;101557.41;4825306;29;20072;-76
2022/09/02 00:32:36;;;;;;;6.35;3.28;;;20.60;99.90;;;21.02;46.95;101563.66;4825373;29;20046;-76
2022/09/02 00:35:06;;;;;;;4.05;3.13;;;20.60;99.90;;;20.98;46.89;101553.91;4824027;29;20070;-76
2022/09/02 00:37:34;;;;;;;2.93;2.70;;;20.60;99.90;;;20.99;46.85;101556.53;4824911;29;20455;-75
2022/09/02 00:40:05;;;;;;;5.60;3.50;;;20.60;99.90;;;20.95;46.74;101549.50;4824946;29;20386;-76
2022/09/02 00:42:35;;;;;;;5.88;3.35;;;20.50;99.90;;;21.01;46.41;101556.50;4824894;29;20047;-76
2022/09/02 00:45:06;;;;;;;5.95;3.42;;;20.60;99.90;;;20.93;46.50;101540.63;4825105;29;20043;-76
2022/09/02 00:47:35;;;;;;;3.92;3.05;;;20.60;99.90;;;20.95;46.80;101535.16;4825119;29;20120;-76
2022/09/02 00:50:09;;;;;;;3.78;2.97;;;20.60;99.90;;;20.94;46.48;101553.16;4825014;29;20118;-76
2022/09/02 00:52:43;;;;;;;4.22;3.03;;;20.60;99.90;;;20.99;46.74;101545.78;4824936;29;20409;-76
2022/09/02 00:55:15;;;;;;;3.85;3.00;;;20.60;99.90;;;20.98;46.74;101543.16;4823812;29;20057;-76
2022/09/02 00:57:48;;;;;;;3.55;2.80;;;20.60;99.90;;;21.03;46.52;101546.56;4824894;29;20046;-76
2022/09/02 01:00:23;;;;;;;3.35;2.90;;;20.60;99.90;;;20.89;46.26;101528.22;4823697;29;20054;-76
2022/09/02 01:02:55;;;;;;;4.28;2.90;;;20.60;99.90;;;20.89;46.59;101521.94;4824937;29;20098;-76
2022/09/02 01:05:28;;;;;;;4.18;3.17;;;20.50;99.90;;;20.97;46.46;101533.31;4824944;29;20076;-76
2022/09/02 01:07:58;;;;;;;3.95;3.35;;;20.50;99.90;;;20.90;46.66;101523.72;4823465;29;20058;-75
2022/09/02 01:10:32;;;;;;;4.70;3.00;;;20.50;99.90;;;20.79;46.49;101520.53;4824528;29;20394;-76
2022/09/02 01:13:05;;;;;;;4.15;2.80;;;20.40;99.90;;;20.80;46.66;101522.28;4823607;29;20050;-76
2022/09/02 01:15:39;;;;;;;5.82;2.83;;;20.40;99.90;;;20.53;46.69;101508.00;4823600;29;20386;-75
2022/09/02 01:18:10;;;;;;;4.22;2.90;;;20.30;99.90;;;20.69;46.76;101522.69;4824224;29;20459;-76
2022/09/02 01:20:39;;;;;;;5.53;3.30;;;20.30;99.90;;;20.60;46.66;101515.81;4824727;29;20054;-76
2022/09/02 01:23:08;;;;;;;4.60;2.92;;;20.20;99.90;;;20.56;47.01;101521.34;4824675;29;20166;-76
2022/09/02 01:25:38;;;;;;;6.82;2.80;;;20.20;99.90;;;20.58;47.06;101524.84;4823480;29;20062;-76
2022/09/02 01:28:10;;;;;;;3.20;2.90;;;20.20;99.90;;;20.59;46.78;101516.75;4824310;29;20112;-76
2022/09/02 01:30:44;;;;;;;4.53;3.15;;;20.20;99.90;;;20.58;46.92;101520.34;4824555;29;20050;-76
2022/09/02 01:33:12;;;;;;;7.30;3.03;;;20.20;99.90;;;20.54;47.05;101518.72;4824554;29;20123;-76
2022/09/02 01:35:41;;;;;;;3.70;3.30;;;20.20;99.90;;;20.55;47.26;101519.59;4824480;29;20042;-76
2022/09/02 01:38:11;;;;;;;7.22;3.20;;;20.10;99.90;;;20.50;47.35;101517.06;4823208;29;20130;-76
2022/09/02 01:40:40;;;;;;;4.35;2.85;;;20.10;99.90;;;20.45;47.41;101502.91;4824822;29;20050;-76
2022/09/02 01:43:12;;;;;;;4.00;3.13;;;20.10;99.90;;;20.54;47.53;101510.66;4824148;29;20564;-76
2022/09/02 01:45:45;;;;;;;3.55;2.92;;;20.10;99.90;;;20.52;47.51;101509.81;4823492;29;20131;-76
2022/09/02 01:48:15;;;;;;;4.68;3.20;;;20.10;99.90;;;20.29;47.62;101498.97;4822818;29;20070;-66
2022/09/02 01:50:52;;;;;;;6.85;3.35;;;20.10;99.90;;;20.27;47.55;101478.47;4823161;29;20398;-67
2022/09/02 01:53:23;;;;;;;9.02;3.50;;;20.00;99.90;;;20.24;47.64;101475.91;4824255;29;20053;-67
2022/09/02 01:55:53;;;;;;;3.55;3.13;;;20.00;99.90;;;20.06;47.76;101461.25;4822980;29;20470;-66
2022/09/02 01:58:22;;;;;;;7.70;3.22;;;19.90;99.90;;;20.21;47.72;101500.19;4822873;29;20054;-67
2022/09/02 02:00:51;;;;;;;3.17;2.60;;;19.80;99.90;;;20.04;48.31;101484.59;4822918;29;20050;-67
2022/09/02 02:03:20;;;;;;;3.65;2.80;;;19.80;99.90;;;20.13;48.30;101502.22;4824180;29;20099;-66
2022/09/02 02:05:48;;;;;;;3.15;2.60;;;19.80;99.90;;;20.08;48.28;101482.69;4822826;29;20042;-66
2022/09/02 02:08:19;;;;;;;6.85;3.38;;;19.80;99.90;;;20.15;48.24;101492.31;4822731;29;20081;-66
2022/09/02 02:10:49;;;;;;;3.38;3.08;;;19.80;99.90;;;20.21;48.07;101494.81;4822785;29;20421;-67
2022/09/02 02:13:18;;;;;;;4.80;3.03;;;19.80;99.90;;;20.22;48.23;101500.13;4822862;29;20065;-66
2022/09/02 02:15:47;;;;;;;4.70;3.22;;;19.80;99.90;;;20.08;48.31;101488.06;4824002;29;20133;-66
2022/09/02 02:18:16;;;;;;;5.20;2.97;;;19.80;99.90;;;20.01;48.54;101494.56;4822620;29;20064;-66
2022/09/02 02:20:44;;;;;;;3.10;2.70;;;19.60;99.90;;;19.96;48.55;101494.72;4823890;29;20057;-66
2022/09/02 02:23:13;;;;;;;2.90;2.67;;;19.60;99.90;;;19.68;48.87;101458.97;4822632;29;20055;-67
2022/09/02 02:25:42;;;;;;;3.92;3.10;;;19.50;99.90;;;19.74;49.03;101486.47;4823954;29;20085;-67
2022/09/02 02:28:13;;;;;;;4.30;3.22;;;19.40;99.90;;;19.84;49.53;101489.72;4822615;29;20115;-66
2022/09/02 02:30:42;;;;;;;4.00;3.03;;;19.40;99.90;;;19.71;49.54;101488.38;4823566;29;20058;-67
2022/09/02 02:33:12;;;;;;;8.00;3.35;;;19.30;99.90;;;19.72;49.37;101476.72;4825818;29;20393;-66
2022/09/02 02:35:43;;;;;;;4.93;2.95;;;19.30;99.90;;;19.73;49.58;101481.16;4825847;29;20074;-66
2022/09/02 02:38:11;;;;;;;3.53;3.22;;;19.30;99.90;;;19.66;49.57;101476.91;4827035;29;20053;-67
2022/09/02 02:40:42;;;;;;;3.35;3.05;;;19.30;99.90;;;19.66;49.72;101468.88;4826950;29;20494;-67
2022/09/02 02:43:12;;;;;;;5.78;3.15;;;19.30;99.90;;;19.67;49.63;101471.50;4826875;29;20057;-66
2022/09/02 02:45:41;;;;;;;4.97;3.05;;;19.40;99.90;;;19.64;49.60;101465.34;4825649;29;20107;-67
2022/09/02 02:48:09;;;;;;;7.55;3.50;;;19.40;99.90;;;19.70;49.62;101479.44;4825497;29;20386;-66
2022/09/02 02:50:38;;;;;;;5.50;3.42;;;19.30;99.90;;;19.65;49.72;101475.16;4826770;29;20397;-66
2022/09/02 02:53:07;;;;;;;3.65;3.20;;;19.30;99.90;;;19.64;49.75;101468.94;4825512;29;20091;-66
2022/09/02 02:55:41;;;;;;;5.43;3.22;;;19.30;99.90;;;19.53;49.92;101464.81;4825217;29;20058;-67
2022/09/02 02:58:09;;;;;;;4.53;3.53;;;19.20;99.90;;;18.97;50.12;101387.88;4825333;29;20042;-68
2022/09/02 03:00:45;;;;;;;4.95;3.20;;;19.20;99.90;;;19.51;50.16;101453.25;4825357;29;20470;-66
2022/09/02 03:03:18;;;;;;;;;;;19.20;99.90;;;19.52;50.03;101463.06;4825434;29;20145;-67
2022/09/02 03:05:50;;;;;;;4.57;3.40;;;19.20;99.90;;;19.36;50.29;101449.22;4825619;29;19931;-66
2022/09/02 03:08:20;;;;;;;4.10;3.40;;;19.10;99.90;;;19.33;50.34;101454.72;4824964;29;20070;-66
2022/09/02 03:10:53;;;;;;;11.57;3.33;;;19.00;99.90;;;19.19;50.70;101450.63;4825207;29;20489;-67
2022/09/02 03:13:25;;;;;;;4.68;3.22;;;18.90;99.90;;;19.24;50.59;101443.34;4825213;29;20070;-67
2022/09/02 03:15:58;;;;;;;4.60;3.00;;;18.90;99.90;;;19.09;50.79;101419.66;4825181;29;20054;-66
2022/09/02 03:18:26;;;;;;;4.35;3.50;;;18.90;99.90;;;18.96;50.86;101426.31;4824972;29;20103;-66
2022/09/02 03:20:55;;;;;;;5.28;3.00;;;18.80;99.90;;;19.11;51.02;101458.03;4824990;29;20120;-66
2022/09/02 03:23:23;;;;;;;6.10;3.00;;;18.80;99.90;;;19.12;51.01;101446.41;4825037;29;20065;-66
2022/09/02 03:25:52;;;;;;;3.55;2.97;;;18.80;99.90;;;19.12;51.24;101449.09;4825059;29;20046;-66
2022/09/02 03:28:32;;;;;;;8.93;3.85;;;18.80;99.90;;;19.17;51.25;101452.50;4824818;29;20074;-66
2022/09/02 03:31:04;;;;;;;5.32;3.00;;;18.80;99.90;;;19.12;51.04;101457.13;4825058;29;20446;-66
2022/09/02 03:33:33;;;;;;;3.83;3.30;;;18.80;99.90;;;18.91;51.53;101454.16;4824979;29;20054;-67
2022/09/02 03:36:04;;;;;;;4.13;3.35;;;18.60;99.90;;;18.63;51.87;101445.16;4824929;29;20046;-66
2022/09/02 03:38:32;;;;;;;5.80;3.25;;;18.40;99.90;;;18.75;52.10;101444.81;4824547;29;20050;-66
2022/09/02 03:41:01;;;;;;;5.80;3.28;;;18.40;99.90;;;18.86;52.06;101456.09;4825895;29;20086;-66
2022/09/02 03:43:29;;;;;;;3.88;3.38;;;18.40;99.90;;;18.88;51.93;101451.56;4825902;29;20039;-66
2022/09/02 03:45:58;;;;;;;7.25;3.55;;;18.50;99.90;;;18.82;51.99;101451.75;4825618;29;20408;-66
2022/09/02 03:48:29;;;;;;;7.22;2.88;;;18.40;99.90;;;18.79;51.89;101440.25;4824603;29;20405;-66
2022/09/02 03:50:57;;;;;;;3.97;3.60;;;18.50;99.90;;;18.84;52.02;101443.66;4824735;29;20057;-67
2022/09/02 03:53:26;;;;;;;7.75;3.30;;;18.50;99.90;;;18.77;52.13;101442.97;4825909;29;20046;-66
2022/09/02 03:55:59;;;;;;;4.57;3.55;;;18.40;99.90;;;18.59;52.53;101434.56;4824336;29;20061;-66
2022/09/02 03:58:28;;;;;;;3.53;3.08;;;18.30;99.90;;;18.76;52.40;101435.84;4824599;29;20055;-67
2022/09/02 04:00:58;;;;;;;4.32;3.92;;;18.40;99.90;;;18.85;52.50;101432.00;4824454;29;20531;-68
2022/09/02 04:03:28;;;;;;;4.00;3.60;;;18.40;99.90;;;18.68;52.41;101429.81;4824387;29;20413;-66
2022/09/02 04:05:57;;;;;;;5.50;3.10;;;18.40;99.90;;;18.27;52.32;101364.91;4824323;29;20046;-66
2022/09/02 04:08:28;;;;;;;5.35;3.97;;;18.40;99.90;;;18.69;52.68;101430.69;4824005;29;20054;-67
2022/09/02 04:11:07;;;;;;;3.83;3.45;;;18.30;99.90;;;18.62;52.51;101424.63;4824433;29;20066;-67
2022/09/02 04:13:36;;;;;;;5.65;4.00;;;18.30;99.90;;;18.57;52.73;101413.16;4824317;29;20525;-67
2022/09/02 04:16:10;;;;;;;4.93;3.70;;;18.30;99.90;;;18.46;53.25;101427.78;4825528;29;20048;-66
2022/09/02 04:18:41;;;;;;;3.88;3.47;;;18.10;99.90;;;18.56;53.05;101415.91;4825364;29;20061;-66
2022/09/02 04:21:12;;;;;;;3.70;3.40;;;18.20;99.90;;;18.60;53.26;101421.09;4824146;29;20489;-66
2022/09/02 04:23:42;;;;;;;4.80;3.45;;;18.20;99.90;;;18.50;53.10;101416.94;4824160;29;20107;-66
2022/09/02 04:26:13;;;;;;;8.90;3.67;;;18.10;99.90;;;18.54;53.28;101413.22;4824090;29;20144;-67
2022/09/02 04:28:42;;;;;;;5.50;3.70;;;18.10;99.90;;;18.55;53.17;101416.78;4823752;29;20060;-66
2022/09/02 04:31:14;;;;;;;6.38;3.90;;;18.20;99.90;;;18.35;53.55;101392.34;4824016;29;20061;-67
2022/09/02 04:33:44;;;;;;;3.47;3.17;;;18.10;99.90;;;18.50;53.51;101410.72;4824966;29;20050;-66
2022/09/02 04:36:18;;;;;;;3.42;3.03;;;18.20;99.90;;;18.46;53.34;101412.59;4823961;29;20082;-66
2022/09/02 04:38:49;;;;;;;6.28;3.60;;;18.10;99.90;;;18.51;53.44;101410.66;4823944;29;20050;-66
2022/09/02 04:41:23;;;;;;;4.93;3.42;;;18.10;99.90;;;18.40;53.40;101385.06;4823598;29;20574;-66
2022/09/02 04:43:57;;;;;;;6.68;3.50;;;18.20;99.90;;;18.54;53.07;101423.09;4823954;29;20064;-66
2022/09/02 04:46:29;;;;;;;5.45;3.67;;;18.20;99.90;;;18.33;53.33;101397.72;4823813;29;20525;-66
2022/09/02 04:49:06;;;;;;;10.55;3.53;;;18.10;99.90;;;18.38;53.43;101397.63;4823804;29;20058;-66
2022/09/02 04:51:34;;;;;;;6.15;3.55;;;18.10;99.90;;;18.32;53.42;101382.59;4823849;29;20062;-66
2022/09/02 04:54:06;;;;;;;3.90;3.47;;;18.10;99.90;;;18.50;53.23;101411.59;4823043;29;20045;-66
2022/09/02 04:56:37;;;;;;;5.60;3.25;;;18.10;99.90;;;18.42;53.14;101389.50;4823717;29;20062;-66
2022/09/02 04:59:08;;;;;;;5.47;3.10;;;18.20;99.90;;;18.27;53.29;101375.63;4823400;29;20115;-66
2022/09/02 05:01:40;;;;;;;7.72;4.15;;;18.20;99.90;;;18.59;53.39;101403.28;4824584;29;20500;-66
2022/09/02 05:04:16;;;;;;;3.97;3.67;;;18.20;99.90;;;18.38;53.75;101390.47;4823627;29;20056;-66
2022/09/02 05:06:49;;;;;;;4.88;3.40;;;18.20;99.90;;;18.54;53.30;101407.88;4823435;29;20051;-67
2022/09/02 05:09:20;;;;;;;4.40;3.38;;;18.20;99.90;;;18.51;53.36;101405.28;4823266;29;20050;-66
2022/09/02 05:11:56;;;;;;;4.20;3.33;;;18.20;99.90;;;18.32;53.51;101395.09;4823503;29;20057;-67
2022/09/02 05:14:27;;;;;;;7.85;3.33;;;18.20;99.90;;;18.51;53.44;101409.75;4823504;29;20054;-66
2022/09/02 05:17:00;;;;;;;4.38;3.92;;;18.20;99.90;;;18.56;53.69;101416.75;4823185;29;20557;-67
2022/09/02 05:19:36;;;;;;;5.93;3.13;;;18.20;99.90;;;18.43;53.53;101395.69;4823433;29;20055;-67
2022/09/02 05:22:04;;;;;;;4.57;3.30;;;18.20;99.90;;;18.52;53.68;101412.44;4823253;29;20460;-67
2022/09/02 05:24:37;;;;;;;4.00;3.30;;;18.20;99.90;;;18.49;53.84;101414.28;4823269;29;20450;-66
2022/09/02 05:27:09;;;;;;;6.82;3.47;;;18.20;99.90;;;17.97;54.33;101369.28;4823366;29;20062;-66
2022/09/02 05:29:37;;;;;;;6.68;3.50;;;18.00;99.90;;;18.02;55.01;101412.91;4824544;29;20082;-66
2022/09/02 05:32:08;;;;;;;6.60;3.58;;;17.70;99.90;;;17.89;54.99;101387.34;4823248;29;20115;-66
2022/09/02 05:34:40;;;;;;;8.63;3.90;;;17.70;99.90;;;17.92;55.18;101381.91;4823127;29;20055;-66
2022/09/02 05:37:09;;;;;;;5.85;3.65;;;17.70;99.90;;;18.10;55.19;101408.19;4823113;29;20050;-66
2022/09/02 05:39:37;;;;;;;4.72;3.63;;;17.70;99.90;;;18.22;55.12;101406.97;4824016;29;20057;-66
2022/09/02 05:42:08;;;;;;;6.13;4.13;;;17.80;99.90;;;17.65;54.92;101292.50;4823018;29;20514;-66
2022/09/02 05:44:37;;;;;;;5.57;3.58;;;17.90;99.90;;;18.35;54.90;101392.34;4824193;29;20063;-66
2022/09/02 05:47:08;;;;;;;5.72;3.80;;;18.10;99.90;;;18.09;54.95;101390.38;4823035;29;20512;-66
2022/09/02 05:49:38;;;;;;;12.77;3.97;;;17.90;99.90;;;18.36;54.79;101418.19;4822987;29;20054;-66
2022/09/02 05:52:14;;;;;;;8.85;4.07;;;17.90;99.90;;;18.19;55.00;101393.69;4823092;29;20558;-66
2022/09/02 05:54:54;;;;;;;4.03;3.63;;;17.90;99.90;;;18.42;54.77;101413.59;4824235;29;20116;-66
2022/09/02 05:57:24;;;;;;;5.80;3.38;;;18.10;99.90;;;18.51;54.77;101413.34;4822841;29;20054;-65
2022/09/02 06:00:04;;;;;;;6.32;4.20;;;18.10;99.90;;;18.15;54.47;101359.88;4822911;29;20501;-67
2022/09/02 06:02:42;;;;;;;7.70;3.60;;;18.20;99.90;;;18.39;54.66;101407.44;4824263;29;20054;-67
2022/09/02 06:05:20;;;;;;;4.93;4.15;;;18.20;99.90;;;18.30;55.04;101413.91;4823116;29;20046;-67
2022/09/02 06:08:02;;;;;;;6.00;4.37;;;18.00;99.90;;;18.39;54.83;101412.78;4827208;29;20187;-66
2022/09/02 06:10:31;;;;;;;4.28;3.65;;;18.00;99.90;;;18.36;54.94;101404.81;4826336;29;20299;-66
2022/09/02 06:13:00;;;;;;;6.85;3.90;;;18.00;99.90;;;18.27;54.85;101379.19;4826184;29;20054;-66
2022/09/02 06:15:32;;;;;;;4.13;3.55;;;18.10;99.90;;;18.00;56.01;101406.69;4826111;29;20081;-66
2022/09/02 06:18:02;;;;;;;4.28;3.85;;;17.70;99.90;;;17.91;55.63;101366.75;4826067;29;20413;-65
2022/09/02 06:20:32;;;;;;;;;;;17.70;99.90;;;18.06;56.03;101409.19;4826453;29;20090;-65
2022/09/02 06:23:03;;;;;;;5.57;4.22;;;17.70;99.90;;;18.01;56.39;101406.66;4825960;29;19997;-65
2022/09/02 06:25:32;;;;;;;5.72;4.28;;;17.60;99.90;;;18.28;56.07;101405.03;4825963;29;20051;-66
2022/09/02 06:28:01;;;;;;;5.38;4.20;;;17.90;99.90;;;18.37;55.84;101410.13;4825730;29;20501;-66
2022/09/02 06:30:39;;;;;;;7.05;4.10;;;18.00;99.90;;;18.34;55.82;101407.53;4825688;29;20123;-65
2022/09/02 06:33:08;;;;;;;10.70;4.55;;;18.00;99.90;;;18.33;55.86;101403.09;4825701;29;20054;-65
2022/09/02 06:35:40;;;;;;;7.93;4.20;;;18.00;99.90;;;18.38;56.16;101401.19;4825400;29;20137;-65
2022/09/02 06:38:13;;;;;;;4.85;4.18;;;18.00;99.90;;;18.69;55.33;101403.91;4825725;29;20413;-66
2022/09/02 06:40:49;;;;;;;5.38;4.45;;;18.20;99.90;;;18.87;54.81;101406.03;4825564;29;20426;-65
2022/09/02 06:43:21;;;;;;;7.35;4.55;;;18.40;99.90;;;19.09;55.14;101407.13;4825585;29;20074;-66
2022/09/02 06:46:17;;;;;;;4.85;4.20;;;18.60;99.90;;;18.95;54.10;101349.50;4825445;29;20066;-66
2022/09/02 06:48:49;;;;;;;9.25;3.90;;;18.90;99.90;;;19.10;54.30;101402.66;4825595;29;20409;-66
2022/09/02 06:51:22;;;;;;;14.30;4.65;;;18.80;99.90;;;18.95;55.10;101403.13;4825510;29;20094;-66
2022/09/02 06:53:52;;;;;;;9.95;4.45;;;18.60;99.90;;;18.61;55.76;101397.88;4825433;29;20145;-67
2022/09/02 06:56:23;;;;;;;6.45;3.60;;;18.40;99.90;;;19.09;55.73;101401.78;4825397;29;20053;-65
2022/09/02 06:58:52;;;;;;;5.90;4.00;;;18.60;99.90;;;19.07;55.16;101397.38;4826424;29;20046;-65
2022/09/02 07:01:24;;;;;;;9.90;4.47;;;18.80;99.90;;;18.56;57.28;101397.13;4825322;29;20046;-65
2022/09/02 07:06:43;;;;;;;11.13;4.65;;;18.40;99.90;;;18.39;57.53;101368.09;4825348;29;20146;-66
2022/09/02 07:09:14;;;;;;;;;;;18.30;99.90;;;18.59;58.31;101394.34;4826963;29;20065;-66
2022/09/02 07:11:46;;;;;;;7.30;4.40;;;18.10;99.90;;;18.83;56.92;101366.84;4825138;29;19925;-72
2022/09/02 07:14:16;;;;;;;8.27;5.13;;;18.50;99.90;;;19.07;56.94;101390.22;4826261;29;20497;-74
2022/09/02 07:16:50;;;;;;;6.32;4.18;;;18.60;99.90;;;19.36;55.44;101378.59;4840127;29;20455;-70
2022/09/02 07:19:20;;;;;;;11.00;4.97;;;18.90;99.90;;;19.55;55.14;101375.25;4825138;29;20073;-76
2022/09/02 07:21:49;;;;;;;9.40;4.10;;;19.20;99.90;;;19.83;54.53;101385.94;4826438;29;20054;-72
2022/09/02 07:24:23;;;;;;;6.55;4.38;;;19.40;99.90;;;19.89;54.22;101396.50;4824949;29;20497;-70
2022/09/02 07:26:52;;;;;;;8.55;3.95;;;19.50;99.90;;;19.88;54.31;101388.50;4824920;29;20446;-70
2022/09/02 07:29:24;;;;;;;6.65;4.25;;;19.50;99.90;;;20.03;54.67;101386.16;4824936;29;20107;-72
2022/09/02 07:31:52;;;;;;;8.43;4.40;;;19.60;99.90;;;20.07;53.32;101390.50;4824839;29;20050;-69
2022/09/02 07:34:21;;;;;;;6.93;4.30;;;19.60;99.90;;;20.37;53.55;101383.16;4824675;29;20055;-70
2022/09/02 07:36:51;;;;;;;9.32;4.78;;;19.90;99.90;;;20.01;53.39;101385.34;4824836;29;20050;-69
2022/09/02 07:39:22;;;;;;;6.88;4.25;;;19.70;99.90;;;19.84;54.23;101390.38;4824674;29;20056;-69
2022/09/02 07:41:52;;;;;;;10.95;4.60;;;19.40;99.90;;;19.80;54.58;101391.44;4824711;29;20106;-71
2022/09/02 07:44:22;;;;;;;5.30;4.53;;;19.40;99.90;;;20.17;53.74;101385.66;4824712;29;20085;-69
2022/09/02 07:46:53;;;;;;;10.68;5.07;;;19.60;99.90;;;19.99;53.36;101354.97;4825735;29;20050;-73
2022/09/02 07:49:22;;;;;;;8.85;4.63;;;19.80;99.90;;;19.84;54.25;101376.09;4824620;29;20558;-73
2022/09/02 07:51:52;;;;;;;11.88;4.88;;;19.50;99.90;;;19.92;53.85;101385.63;4824568;29;20451;-73
2022/09/02 07:54:25;;;;;;;5.80;4.93;;;19.50;99.90;;;19.82;54.07;101381.53;4825726;29;20057;-73
2022/09/02 07:56:55;;;;;;;8.50;4.65;;;19.40;99.90;;;19.65;54.71;101384.75;4824519;29;20481;-74
2022/09/02 07:59:24;;;;;;;14.65;5.43;;;19.30;99.90;;;19.19;54.98;101284.34;4825624;29;20197;-73
2022/09/02 08:01:55;;;;;;;8.52;5.57;;;19.30;99.90;;;19.80;54.67;101386.06;4824381;29;20494;-73
2022/09/02 08:04:24;;;;;;;12.48;5.70;;;19.40;99.90;;;20.12;54.40;101380.44;4824103;29;20099;-73
2022/09/02 08:06:54;;;;;;;7.35;4.85;;;19.60;99.90;;;19.91;54.04;101342.72;4823904;29;20050;-70
2022/09/02 08:09:24;;;;;;;11.65;5.78;;;19.80;99.90;;;19.57;54.67;101297.38;4825525;29;20051;-71
2022/09/02 08:11:53;;;;;;;12.60;5.53;;;19.70;99.90;;;19.80;55.69;101369.97;4825744;29;20081;-70
2022/09/02 08:14:27;;;;;;;10.52;5.57;;;19.50;99.90;;;19.72;55.37;101292.34;4825163;29;20054;-70
2022/09/02 08:16:58;;;;;;;13.25;5.35;;;19.70;99.90;;;20.38;55.06;101385.78;4825192;29;20145;-69
2022/09/02 08:19:27;;;;;;;13.63;6.43;;;20.00;99.90;;;20.37;55.34;101372.41;4825151;29;20050;-70
2022/09/02 08:21:55;;;;;;;10.10;5.22;;;20.00;99.90;;;20.36;55.38;101374.22;4824039;29;20454;-69
2022/09/02 08:24:25;;;;;;;17.92;6.10;;;19.90;99.90;;;20.38;55.51;101374.19;4825357;29;20053;-70
2022/09/02 08:26:54;;;;;;;13.02;5.53;;;19.90;99.90;;;20.52;54.83;101383.47;4825039;29;20134;-73
2022/09/02 08:29:22;;;;;;;10.95;5.78;;;20.20;99.90;;;20.50;53.82;101369.22;4824186;29;20458;-74
2022/09/02 08:31:50;;;;;;;9.25;5.50;;;20.20;99.90;;;20.44;55.50;101368.59;4825095;29;20057;-74
2022/09/02 08:34:21;;;;;;;;;;;20.00;99.90;;;20.50;55.09;101366.53;4825315;29;20046;-80
2022/09/02 08:36:50;;;;;;;11.85;5.72;;;20.00;99.90;;;20.77;54.36;101361.06;4825021;29;19993;-72
2022/09/02 08:39:26;;;;;;;8.95;5.80;;;20.30;99.90;;;20.65;54.70;101368.63;4824915;29;20057;-71
2022/09/02 08:42:04;;;;;;;11.90;6.13;;;20.30;99.90;;;20.57;55.08;101343.88;4824829;29;20082;-73
2022/09/02 08:44:37;;;;;;;9.73;5.50;;;20.30;99.90;;;20.74;54.16;101362.03;4824765;29;20057;-72
2022/09/02 08:47:12;;;;;;;10.23;5.68;;;20.40;99.90;;;20.63;55.48;101358.88;4825298;29;20050;-76
2022/09/02 08:49:44;;;;;;;13.57;5.70;;;20.20;99.90;;;20.81;55.48;101344.72;4825015;29;20054;-78
2022/09/02 08:52:22;;;;;;;13.27;5.65;;;20.30;99.90;;;21.02;55.07;101359.19;4824804;29;20050;-79
2022/09/02 08:54:55;;;;;;;16.23;6.57;;;20.60;99.90;;;21.24;55.06;101357.38;4824817;29;20050;-75
2022/09/02 08:57:26;;;;;;;12.05;6.13;;;20.70;99.90;;;21.10;54.53;101344.47;4824978;29;20107;-79
2022/09/02 08:59:57;;;;;;;;;;;20.70;99.90;;;21.21;54.78;101352.13;4825326;29;20468;-77
2022/09/02 09:02:31;;;;;;;;;;;20.80;99.90;;;21.29;54.11;101347.31;4825140;29;19924;-76
2022/09/02 09:05:18;;;;;;;14.48;6.63;;;20.90;99.90;;;21.37;53.78;101345.16;4824982;29;19951;-74
2022/09/02 09:08:01;;;;;;;11.20;6.55;;;21.00;99.90;;;21.51;53.49;101338.28;4824562;29;20059;-74
2022/09/02 09:10:42;;;;;;;14.35;6.85;;;21.20;99.90;;;21.49;53.78;101336.59;4824841;29;20078;-79
2022/09/02 09:13:42;;;;;;;9.75;6.10;;;21.20;99.90;;;21.69;53.72;101352.81;4823424;29;20058;-81
2022/09/02 09:16:22;;;;;;;10.68;6.55;;;21.20;99.90;;;21.47;53.79;101350.13;4824716;29;20058;-82
2022/09/02 09:19:00;;;;;;;10.50;6.65;;;21.10;99.90;;;21.75;55.17;101354.34;4824651;29;20050;-87
2022/09/02 09:21:32;;;;;;;9.52;6.88;;;21.30;99.90;;;21.63;53.41;101347.66;4824444;29;20378;-88
2022/09/02 09:24:06;;;;;;;15.63;6.80;;;21.20;99.90;;;21.73;53.51;101343.66;4823138;29;20049;-90
2022/09/02 09:26:40;;;;;;;8.07;5.95;;;21.30;99.90;;;21.69;54.75;101350.09;4825032;29;20050;-90
2022/09/02 09:29:09;;;;;;;14.80;6.82;;;21.30;99.90;;;21.68;54.60;101332.19;4823376;29;20058;-88
2022/09/02 09:31:37;;;;;;;13.30;6.30;;;21.30;99.90;;;21.73;54.42;101314.03;4824257;29;20046;-83
2022/09/02 09:34:09;;;;;;;15.15;6.82;;;21.40;99.90;;;22.05;54.75;101345.84;4824460;29;20050;-82
2022/09/02 09:36:53;;;;;;;11.10;6.22;;;21.50;99.90;;;22.27;54.16;101348.47;4824163;29;20077;-83
2022/09/02 09:39:25;;;;;;;10.57;6.63;;;21.80;99.90;;;22.26;53.14;101342.19;4824110;29;20099;-83
2022/09/02 09:41:57;;;;;;;11.30;6.25;;;21.90;99.90;;;22.30;52.53;101348.31;4824076;29;20054;-82
2022/09/02 09:44:44;;;;;;;9.95;6.95;;;21.90;99.90;;;22.33;52.79;101342.81;4824254;29;20082;-85
2022/09/02 09:47:19;;;;;;;15.00;6.60;;;21.80;99.90;;;22.49;52.62;101341.16;4824210;29;20061;-84
2022/09/02 09:49:50;;;;;;;9.02;5.80;;;22.00;99.90;;;21.99;52.50;101238.34;4824286;29;20119;-85
2022/09/02 09:52:27;;;;;;;9.85;6.40;;;22.10;99.90;;;22.50;52.40;101344.72;4824009;29;20046;-87
2022/09/02 09:55:11;;;;;;;10.77;6.40;;;22.10;99.90;;;22.52;52.00;101350.91;4823156;29;20114;-88
2022/09/02 09:57:44;;;;;;;15.65;7.00;;;22.00;99.90;;;22.52;52.09;101345.53;4824155;29;20054;-89
2022/09/02 10:00:21;;;;;;;9.73;5.70;;;22.10;99.90;;;22.37;51.88;101258.16;4824102;29;20043;-79
2022/09/02 10:02:53;;;;;;;9.20;6.50;;;22.40;99.90;;;22.73;51.38;101328.38;4822725;29;20414;-71
2022/09/02 10:05:33;;;;;;;11.45;6.18;;;22.40;99.90;;;22.92;51.50;101345.44;4823912;29;20050;-71
2022/09/02 10:08:04;;;;;;;11.52;6.68;;;22.50;99.90;;;22.87;51.26;101342.09;4823778;29;20063;-77
2022/09/02 10:10:58;;;;;;;9.68;6.38;;;22.50;99.90;;;23.11;51.97;101314.78;4822646;29;20140;-75
2022/09/02 10:13:31;;;;;;;12.35;6.10;;;22.70;99.90;;;23.45;51.86;101315.84;4823959;29;20055;-77
2022/09/02 10:16:24;;;;;;;8.15;6.32;;;23.10;99.90;;;23.60;50.17;101344.78;4823991;29;20054;-80
2022/09/02 10:18:56;;;;;;;11.75;6.60;;;23.20;99.90;;;23.84;50.24;101346.25;4824080;29;20056;-79
2022/09/02 10:21:39;;;;;;;10.30;6.43;;;23.40;99.90;;;23.94;50.56;101339.44;4824013;29;20290;-79
2022/09/02 10:24:29;;;;;;;10.32;7.38;;;23.50;99.90;;;24.12;49.55;101339.34;4823689;29;20046;-79
2022/09/02 10:26:59;;;;;;;13.63;6.93;;;23.70;99.90;;;23.10;48.81;101175.41;4823926;29;20050;-81
2022/09/02 10:29:50;;;;;;;11.48;6.22;;;23.70;99.90;;;23.98;50.51;101322.94;4823652;29;20042;-80
2022/09/02 10:32:55;;;;;;;9.48;6.88;;;23.60;99.90;;;24.33;49.33;101317.56;4823714;29;20050;-75
2022/09/02 10:35:34;;;;;;;12.30;6.20;;;23.90;99.90;;;24.28;49.90;101312.38;4823787;29;20046;-73